Time;durP1;ratioP1;P1;durP2;ratioP2;P2;SDS_P1;SDS_P2;PMS_P1;PMS_P2;Temp;Humidity;BMP_temperature;BMP_pressure;BME280_temperature;BME280_humidity;BME280_pressure;Samples;Min_cycle;Max_cycle;Signal;HPM_P1;HPM_P2
2022/04/23 00:00:38;;;;;;;6.55;3.95;;;8.30;1.40;;;9.60;100.00;94085.31;646664;216;31515;-75
2022/04/23 00:03:25;;;;;;;7.17;3.97;;;8.40;1.40;;;9.48;100.00;94089.34;646765;216;31607;-73
2022/04/23 00:06:13;;;;;;;4.50;2.40;;;8.30;1.40;;;9.33;100.00;94086.47;621480;226;32199;-75
2022/04/23 00:08:55;;;;;;;4.22;3.62;;;8.30;1.40;;;9.27;100.00;94084.36;620541;226;32227;-74
2022/04/23 00:11:39;;;;;;;5.82;3.12;;;8.20;1.40;;;9.53;100.00;94084.05;647378;216;31533;-74
2022/04/23 00:14:21;;;;;;;4.70;2.80;;;8.30;1.40;;;9.73;100.00;94079.95;648407;216;31554;-75
2022/04/23 00:17:03;;;;;;;4.97;3.08;;;8.40;1.40;;;9.75;100.00;94079.77;648217;212;31658;-75
2022/04/23 00:19:47;;;;;;;4.90;3.50;;;8.30;1.40;;;9.79;100.00;94077.70;621067;222;32427;-75
2022/04/23 00:22:27;;;;;;;4.53;2.70;;;8.40;1.40;;;9.49;100.00;94077.82;648954;216;42174;-74
2022/04/23 00:25:10;;;;;;;4.50;3.60;;;8.20;1.40;;;9.10;100.00;94077.80;647614;212;31771;-75
2022/04/23 00:27:53;;;;;;;5.17;4.07;;;8.20;1.40;;;9.24;100.00;94076.53;649091;212;31583;-74
2022/04/23 00:30:40;;;;;;;5.87;3.33;;;8.20;1.40;;;9.24;100.00;94074.51;646114;216;31613;-74
2022/04/23 00:35:51;;;;;;;4.15;2.95;;;8.10;1.40;;;9.37;100.00;94078.48;647295;212;32187;-74
2022/04/23 00:38:34;;;;;;;6.72;3.47;;;8.10;1.40;;;9.10;100.00;94079.88;647502;216;31575;-75
2022/04/23 00:44:04;;;;;;;7.30;3.40;;;7.90;1.40;;;8.63;100.00;94073.77;621301;222;32108;-75
2022/04/23 00:46:46;;;;;;;6.20;3.65;;;7.90;1.40;;;8.89;100.00;94072.06;620912;225;31930;-74
2022/04/23 00:49:28;;;;;;;5.90;3.93;;;7.90;1.40;;;9.15;100.00;94076.56;648150;216;31694;-74
2022/04/23 00:52:10;;;;;;;3.83;3.00;;;8.00;1.40;;;8.95;100.00;94077.98;647531;216;31563;-74
2022/04/23 00:54:51;;;;;;;4.83;3.57;;;7.90;1.40;;;8.63;100.00;94073.61;648682;212;31571;-74
2022/04/23 00:57:33;;;;;;;3.20;2.58;;;7.80;1.40;;;8.45;100.00;94077.05;648966;212;31565;-75
2022/04/23 01:00:18;;;;;;;6.10;3.03;;;7.70;1.40;;;8.41;100.00;94076.45;648047;216;31569;-74
2022/04/23 01:03:01;;;;;;;4.47;3.22;;;7.70;1.40;;;8.50;100.00;94077.62;644754;217;31577;-73
2022/04/23 01:05:45;;;;;;;5.97;3.07;;;7.70;1.40;;;8.34;100.00;94073.47;647690;212;31560;-74
2022/04/23 01:08:29;;;;;;;5.20;4.10;;;7.60;1.40;;;8.44;100.00;94077.35;646966;216;31611;-74
2022/04/23 01:11:17;;;;;;;8.40;4.45;;;7.70;1.40;;;8.80;100.00;94081.00;647629;216;31611;-75
2022/04/23 01:16:38;;;;;;;3.10;2.63;;;7.90;1.40;;;8.99;100.00;94085.83;646775;216;31558;-74
2022/04/23 01:19:29;;;;;;;3.77;3.47;;;7.80;1.40;;;8.83;100.00;94085.18;647330;212;31594;-77
2022/04/23 01:22:11;;;;;;;4.70;3.78;;;7.80;1.40;;;8.87;100.00;94088.78;620887;222;32012;-76
2022/04/23 01:24:54;;;;;;;5.40;3.00;;;7.80;1.40;;;8.65;100.00;94090.34;620453;226;31900;-74
2022/04/23 01:27:35;;;;;;;2.70;2.35;;;7.70;1.40;;;8.52;100.00;94092.80;643612;217;31589;-74
2022/04/23 01:30:17;;;;;;;4.65;2.58;;;7.60;1.40;;;8.40;100.00;94090.66;647983;212;31546;-74
2022/04/23 01:33:01;;;;;;;3.90;2.43;;;7.50;1.40;;;8.38;100.00;94091.14;641511;215;31599;-75
2022/04/23 01:35:52;;;;;;;6.55;4.35;;;7.50;1.40;;;8.47;100.00;94090.81;620593;226;31897;-74
2022/04/23 01:38:33;;;;;;;3.43;2.97;;;7.60;1.40;;;8.47;100.00;94092.45;648906;212;31579;-75
2022/04/23 01:41:15;;;;;;;4.00;2.73;;;7.60;1.40;;;8.40;100.00;94092.55;648647;216;31677;-75
2022/04/23 01:44:01;;;;;;;3.67;2.73;;;7.60;1.40;;;8.30;100.00;94091.30;619675;222;32026;-90
2022/04/23 01:46:49;;;;;;;6.40;3.80;;;7.50;1.40;;;8.32;100.00;94093.00;649873;216;31581;-74
2022/04/23 01:49:31;;;;;;;4.03;2.87;;;7.50;1.40;;;8.26;100.00;94096.06;643095;216;31501;-74
2022/04/23 01:52:21;;;;;;;3.83;2.63;;;7.50;1.40;;;8.09;100.00;94096.25;618529;226;32107;-75
2022/04/23 01:55:09;;;;;;;3.60;2.93;;;7.40;1.40;;;8.13;100.00;94097.89;646722;216;31584;-74
2022/04/23 01:57:51;;;;;;;3.80;3.50;;;7.40;1.40;;;8.31;100.00;94093.75;647900;216;31593;-75
2022/04/23 02:00:34;;;;;;;3.60;3.07;;;7.50;1.40;;;8.40;100.00;94089.84;647999;216;31618;-76
2022/04/23 02:03:16;;;;;;;4.00;2.57;;;7.50;1.40;;;8.37;100.00;94088.98;648230;216;31586;-74
2022/04/23 02:05:58;;;;;;;3.00;2.40;;;7.50;1.40;;;8.64;100.00;94088.14;648103;212;32064;-74
2022/04/23 02:08:40;;;;;;;3.70;3.40;;;7.50;1.40;;;8.55;100.00;94089.66;609947;222;32076;-74
2022/04/23 02:11:21;;;;;;;2.37;2.17;;;7.50;1.40;;;8.71;100.00;94090.80;648802;216;42627;-74
2022/04/23 02:14:03;;;;;;;3.80;3.00;;;7.60;1.40;;;8.33;100.00;94086.82;647748;216;32132;-74
2022/04/23 02:16:47;;;;;;;3.62;3.33;;;7.40;1.40;;;8.37;100.00;94079.42;648707;212;31596;-77
2022/04/23 02:19:34;;;;;;;5.47;2.80;;;7.40;1.40;;;8.46;100.00;94081.69;647906;216;31685;-77
2022/04/23 02:22:22;;;;;;;3.43;3.03;;;7.40;1.40;;;8.41;100.00;94077.83;630531;217;31706;-74
2022/04/23 02:25:10;;;;;;;3.70;2.70;;;7.40;1.40;;;8.62;100.00;94084.61;647216;216;31598;-74
2022/04/23 02:28:01;;;;;;;2.00;1.80;;;7.50;1.40;;;8.55;100.00;94085.32;645977;212;32238;-74
2022/04/23 02:30:42;;;;;;;4.53;3.22;;;7.40;1.40;;;8.08;100.00;94087.92;645724;216;43031;-74
2022/04/23 02:35:55;;;;;;;4.20;2.10;;;7.30;1.40;;;8.45;100.00;94073.11;648565;216;31888;-74
2022/04/23 02:38:40;;;;;;;4.30;3.30;;;7.40;1.40;;;8.17;100.00;94083.28;646735;216;31532;-74
2022/04/23 02:41:28;;;;;;;4.00;3.50;;;7.20;1.40;;;7.77;100.00;94082.08;645808;212;31607;-74
2022/04/23 02:44:17;;;;;;;2.10;1.93;;;7.10;1.40;;;7.70;100.00;94090.39;647458;212;31595;-74
2022/04/23 02:47:00;;;;;;;2.37;2.00;;;7.00;1.40;;;7.67;100.00;94081.41;647758;216;31988;-75
2022/04/23 02:49:40;;;;;;;2.83;2.60;;;7.00;1.40;;;7.63;100.00;94076.47;648126;216;31661;-75
2022/04/23 02:52:22;;;;;;;2.67;2.23;;;7.00;1.40;;;7.61;100.00;94075.71;647883;216;31804;-74
2022/04/23 02:55:11;;;;;;;3.60;2.43;;;7.00;1.40;;;7.67;100.00;94080.63;645777;216;31729;-74
2022/04/23 02:58:02;;;;;;;3.73;2.60;;;7.00;1.40;;;7.85;100.00;94080.81;620009;222;31897;-74
2022/04/23 03:00:44;;;;;;;3.40;2.60;;;7.10;1.40;;;7.59;100.00;94074.79;622066;222;31933;-74
2022/04/23 03:03:26;;;;;;;3.60;2.20;;;6.90;1.40;;;7.67;100.00;94073.67;648015;212;31602;-74
2022/04/23 03:08:42;;;;;;;4.32;2.35;;;7.00;1.40;;;7.62;100.00;94077.59;636957;216;32299;-74
2022/04/23 03:11:24;;;;;;;3.57;2.60;;;7.00;1.40;;;7.69;100.00;94076.71;647428;216;31583;-75
2022/04/23 03:14:06;;;;;;;3.30;2.50;;;7.00;1.40;;;7.86;100.00;94083.14;647736;216;31547;-75
2022/04/23 03:16:48;;;;;;;5.03;3.67;;;7.10;1.40;;;7.97;100.00;94086.71;647558;216;32724;-74
2022/04/23 03:19:30;;;;;;;3.90;3.50;;;7.10;1.40;;;8.24;100.00;94087.92;647202;212;42166;-74
2022/04/23 03:22:13;;;;;;;4.40;3.23;;;7.20;1.40;;;7.80;100.00;94091.45;647731;212;31562;-74
2022/04/23 03:24:54;;;;;;;5.17;4.17;;;7.00;1.40;;;7.85;100.00;94097.16;648260;216;31595;-73
2022/04/23 03:27:36;;;;;;;2.87;2.67;;;7.00;1.40;;;7.69;100.00;94094.42;647918;216;31587;-75
2022/04/23 03:30:20;;;;;;;6.03;3.33;;;6.90;1.40;;;7.68;100.00;94091.70;620431;226;32116;-74
2022/04/23 03:33:02;;;;;;;6.13;3.37;;;6.90;1.40;;;7.54;100.00;94088.95;647055;212;31566;-75
2022/04/23 03:35:52;;;;;;;4.53;2.67;;;6.90;1.40;;;7.69;100.00;94086.47;647544;212;42220;-75
2022/04/23 03:38:35;;;;;;;4.82;3.72;;;7.00;1.40;;;7.70;100.00;94090.39;647463;212;42842;-74
2022/04/23 03:41:17;;;;;;;2.87;2.60;;;7.00;1.40;;;7.56;100.00;94090.66;647452;216;31814;-75
2022/04/23 03:43:57;;;;;;;3.45;3.00;;;6.90;1.40;;;7.67;100.00;94092.86;648712;212;37806;-74
2022/04/23 03:46:41;;;;;;;5.47;2.67;;;7.00;1.40;;;7.68;100.00;94091.44;648452;216;32167;-75
2022/04/23 03:49:27;;;;;;;6.32;3.20;;;7.00;1.40;;;7.81;100.00;94092.19;648355;216;31592;-74
2022/04/23 03:52:10;;;;;;;3.10;2.10;;;7.10;1.40;;;7.92;100.00;94085.52;646798;216;31606;-74
2022/04/23 03:54:52;;;;;;;4.10;3.33;;;7.10;1.40;;;7.84;100.00;94085.09;648811;216;31655;-75
2022/04/23 03:57:47;;;;;;;3.75;3.45;;;7.00;1.40;;;7.50;100.00;94085.12;646863;216;31601;-74
2022/04/23 04:00:35;;;;;;;3.70;2.73;;;6.80;1.40;;;7.43;100.00;94082.88;620985;226;32003;-74
2022/04/23 04:03:17;;;;;;;2.70;2.03;;;6.70;1.40;;;7.43;100.00;94085.17;647899;216;31527;-75
2022/04/23 04:05:59;;;;;;;3.90;3.50;;;6.70;1.40;;;7.40;100.00;94087.53;647244;216;32251;-74
2022/04/23 04:08:41;;;;;;;3.37;1.53;;;6.70;1.40;;;7.31;100.00;94086.46;637401;216;31701;-73
2022/04/23 04:11:23;;;;;;;4.97;2.90;;;6.70;1.40;;;7.48;100.00;94081.42;649744;212;31578;-74
2022/04/23 04:16:31;;;;;;;3.42;2.90;;;6.80;1.40;;;7.30;100.00;94073.02;646996;216;31592;-74
2022/04/23 04:19:12;;;;;;;5.37;3.07;;;6.60;1.40;;;7.41;100.00;94066.50;647916;212;31562;-75
2022/04/23 04:21:54;;;;;;;4.25;3.22;;;6.70;1.40;;;7.21;100.00;94061.08;647350;216;31570;-75
2022/04/23 04:24:38;;;;;;;5.00;2.30;;;6.60;1.40;;;7.29;100.00;94061.44;648098;216;31580;-74
2022/04/23 04:27:21;;;;;;;5.93;3.33;;;6.70;1.40;;;7.10;100.00;94050.77;648559;216;42344;-75
2022/04/23 04:30:03;;;;;;;3.37;1.90;;;6.50;1.40;;;7.15;100.00;94050.91;648211;212;31763;-73
2022/04/23 04:32:54;;;;;;;5.10;2.15;;;6.50;1.40;;;7.17;100.00;94053.89;645016;212;31639;-74
2022/04/23 04:35:57;;;;;;;4.72;2.80;;;6.60;1.40;;;7.18;100.00;94058.33;648706;216;31576;-74
2022/04/23 04:38:38;;;;;;;3.13;2.80;;;6.60;1.40;;;7.14;100.00;94060.31;648038;216;31567;-73
2022/04/23 04:41:20;;;;;;;3.37;2.05;;;6.50;1.40;;;7.21;100.00;94053.70;649179;216;31543;-74
2022/04/23 04:44:02;;;;;;;2.80;2.60;;;6.60;1.40;;;7.52;100.00;94051.67;647451;212;31564;-74
2022/04/23 04:46:44;;;;;;;5.22;2.65;;;6.80;1.40;;;7.34;100.00;94046.97;649463;212;31680;-73
2022/04/23 04:49:26;;;;;;;4.18;2.10;;;6.70;1.40;;;7.46;100.00;94051.55;647094;216;31557;-74
2022/04/23 04:52:08;;;;;;;2.93;2.60;;;6.70;1.40;;;7.44;100.00;94051.50;647509;212;31558;-74
2022/04/23 04:57:28;;;;;;;1.95;1.75;;;6.80;1.40;;;7.70;100.00;94047.97;647076;216;32175;-75
2022/04/23 05:00:10;;;;;;;3.00;2.20;;;6.90;1.40;;;7.63;100.00;94053.01;647825;216;31914;-75
2022/04/23 05:02:52;;;;;;;7.70;4.87;;;6.80;1.40;;;7.84;100.00;94053.84;647090;212;31546;-74
2022/04/23 05:05:35;;;;;;;4.10;2.20;;;6.90;1.40;;;7.59;100.00;94060.55;649403;216;32037;-73
2022/04/23 05:08:18;;;;;;;3.47;1.65;;;6.80;1.40;;;7.56;100.00;94060.39;639153;212;31697;-75
2022/04/23 05:10:59;;;;;;;4.23;3.00;;;6.80;1.40;;;7.86;100.00;94064.61;646121;216;31715;-74
2022/04/23 05:13:41;;;;;;;2.60;2.20;;;7.00;1.40;;;8.18;100.00;94068.91;648365;216;31598;-74
2022/04/23 05:16:23;;;;;;;2.78;2.55;;;7.10;1.40;;;7.80;100.00;94081.05;648688;216;31570;-73
2022/04/23 05:19:07;;;;;;;3.00;2.70;;;6.90;1.40;;;7.55;100.00;94078.66;648042;216;31553;-74
2022/04/23 05:21:50;;;;;;;2.45;2.10;;;6.80;1.40;;;7.75;100.00;94077.11;643958;216;31664;-74
2022/04/23 05:24:32;;;;;;;2.73;2.33;;;6.90;1.40;;;7.74;100.00;94069.58;650016;216;31592;-74
2022/04/23 05:27:16;;;;;;;2.55;2.33;;;6.90;1.40;;;8.20;100.00;94072.05;647527;214;31616;-75
2022/04/23 05:29:58;;;;;;;5.43;2.43;;;7.10;1.40;;;8.09;100.00;94065.06;620258;226;32070;-75
2022/04/23 05:32:45;;;;;;;3.90;2.20;;;7.10;1.40;;;7.61;100.00;94068.38;648712;216;31571;-74
2022/04/23 05:35:54;;;;;;;4.18;2.58;;;6.90;1.40;;;7.71;100.00;94066.99;647495;216;31713;-74
2022/04/23 05:38:36;;;;;;;3.20;2.10;;;6.90;1.40;;;7.53;100.00;94063.08;619669;226;32071;-74
2022/04/23 05:41:20;;;;;;;4.30;3.27;;;6.90;1.40;;;7.84;100.00;94065.55;647463;216;31646;-74
2022/04/23 05:44:02;;;;;;;4.57;2.43;;;7.00;1.40;;;7.98;100.00;94070.91;643773;215;42423;-73
2022/04/23 05:46:44;;;;;;;4.40;1.80;;;7.00;1.40;;;7.62;100.00;94066.58;647407;216;31598;-74
2022/04/23 05:49:27;;;;;;;1.83;1.73;;;6.90;1.40;;;7.41;100.00;94072.92;648328;216;31655;-74
2022/04/23 05:52:10;;;;;;;3.80;2.40;;;6.80;1.40;;;7.38;100.00;94066.14;647555;216;42215;-75
2022/04/23 05:54:56;;;;;;;3.20;2.90;;;6.80;1.40;;;7.48;100.00;94058.61;647916;212;31581;-74
2022/04/23 05:57:37;;;;;;;2.58;1.98;;;6.80;1.40;;;7.44;100.00;94057.33;647276;216;31516;-75
2022/04/23 06:00:19;;;;;;;4.90;2.90;;;6.80;1.40;;;7.29;100.00;94058.76;648767;216;31592;-74
2022/04/23 06:03:06;;;;;;;2.60;2.27;;;6.70;1.40;;;7.49;100.00;94065.75;647660;216;31645;-76
2022/04/23 06:05:54;;;;;;;4.07;3.05;;;6.90;1.40;;;7.65;100.00;94067.80;646098;216;31594;-74
2022/04/23 06:08:36;;;;;;;3.90;2.27;;;7.00;1.40;;;7.50;100.00;94071.71;639592;216;31763;-74
2022/04/23 06:11:17;;;;;;;2.28;1.83;;;6.80;1.40;;;7.42;100.00;94072.70;646851;216;31567;-76
2022/04/23 06:13:59;;;;;;;1.83;1.73;;;6.80;1.40;;;7.45;100.00;94072.34;645255;216;32742;-76
2022/04/23 06:16:43;;;;;;;3.28;1.48;;;6.90;1.40;;;7.63;100.00;94072.82;647768;216;32120;-75
2022/04/23 06:19:25;;;;;;;2.80;2.60;;;7.00;1.40;;;7.51;100.00;94074.05;619584;226;31882;-74
2022/04/23 06:22:10;;;;;;;3.90;2.10;;;6.90;1.40;;;7.60;100.00;94066.58;647007;216;31573;-73
2022/04/23 06:24:58;;;;;;;4.70;2.53;;;7.00;1.40;;;7.72;100.00;94071.34;646930;212;31541;-76
2022/04/23 06:27:45;;;;;;;5.40;2.33;;;7.10;1.40;;;7.83;100.00;94071.75;642077;216;31578;-73
2022/04/23 06:30:30;;;;;;;3.00;2.13;;;7.10;1.40;;;7.99;100.00;94074.65;646580;216;31548;-73
2022/04/23 06:35:52;;;;;;;3.00;2.60;;;7.20;1.40;;;8.07;100.00;94082.92;647634;216;31568;-73
2022/04/23 06:38:33;;;;;;;2.83;2.53;;;7.20;1.40;;;8.29;100.00;94089.43;619518;226;32077;-73
2022/04/23 06:41:18;;;;;;;2.85;2.50;;;7.40;1.40;;;7.98;100.00;94086.45;647588;212;32996;-74
2022/04/23 06:44:00;;;;;;;2.53;2.10;;;7.10;1.40;;;7.75;100.00;94086.17;645623;216;32027;-73
2022/04/23 06:46:41;;;;;;;4.00;2.13;;;7.10;1.40;;;7.98;100.00;94086.84;645533;212;31672;-74
2022/04/23 06:52:01;;;;;;;2.60;1.70;;;7.10;1.40;;;7.80;100.00;94087.62;646558;216;31563;-74
2022/04/23 06:54:42;;;;;;;5.83;2.73;;;7.10;1.40;;;7.88;100.00;94088.80;645580;216;31563;-74
2022/04/23 06:57:25;;;;;;;5.27;3.03;;;7.20;1.40;;;7.91;100.00;94086.11;647066;216;31548;-74
2022/04/23 07:00:11;;;;;;;2.93;2.63;;;7.20;1.40;;;7.96;100.00;94088.42;645363;212;31757;-74
2022/04/23 07:02:50;;;;;;;4.07;2.40;;;7.30;1.40;;;8.29;100.00;94083.76;646202;216;31615;-74
2022/04/23 07:05:38;;;;;;;5.47;1.60;;;7.40;1.40;;;8.22;100.00;94081.97;647874;216;31537;-76
2022/04/23 07:08:26;;;;;;;4.45;2.90;;;7.40;1.40;;;8.48;100.00;94078.07;635045;220;31902;-74
2022/04/23 07:11:08;;;;;;;5.05;2.87;;;7.70;1.40;;;8.74;100.00;94082.45;645957;212;31714;-73
2022/04/23 07:13:50;;;;;;;3.00;2.17;;;7.80;1.40;;;8.33;100.00;94085.02;646029;216;31719;-74
2022/04/23 07:16:32;;;;;;;3.30;2.93;;;7.50;1.40;;;8.52;100.00;94080.41;645527;216;31653;-75
2022/04/23 07:19:13;;;;;;;4.40;2.27;;;7.70;1.40;;;8.49;100.00;94080.36;645096;216;31576;-73
2022/04/23 07:22:01;;;;;;;4.63;2.90;;;7.80;1.40;;;8.55;100.00;94079.39;619874;226;31942;-76
2022/04/23 07:24:50;;;;;;;6.30;2.70;;;7.70;1.40;;;8.48;100.00;94075.08;618899;226;31953;-73
2022/04/23 07:30:05;;;;;;;4.07;3.47;;;7.70;1.40;;;8.37;100.00;94071.16;645526;212;31617;-73
2022/04/23 07:32:47;;;;;;;5.03;2.83;;;7.80;1.40;;;8.50;100.00;94070.20;645237;212;31607;-73
2022/04/23 07:38:41;;;;;;;4.65;2.95;;;8.10;1.40;;;8.91;100.00;94068.91;646450;216;31565;-73
2022/04/23 07:41:27;;;;;;;4.80;2.40;;;8.10;1.40;;;9.18;100.00;94064.84;646765;216;31533;-74
2022/04/23 07:44:08;;;;;;;3.40;3.10;;;8.30;1.40;;;9.50;100.00;94058.73;646287;216;31590;-74
2022/04/23 07:46:49;;;;;;;3.20;2.10;;;8.30;1.40;;;9.41;100.00;94057.86;617650;225;31933;-74
2022/04/23 07:49:37;;;;;;;4.10;1.90;;;8.30;1.40;;;9.62;100.00;94052.78;647436;212;31506;-78
2022/04/23 07:52:25;;;;;;;4.87;2.43;;;8.50;1.40;;;9.60;100.00;94055.23;646517;216;31574;-74
2022/04/23 07:55:10;;;;;;;4.70;2.90;;;8.60;1.40;;;9.25;100.00;94046.53;646971;216;42179;-74
2022/04/23 08:00:34;;;;;;;5.10;2.87;;;8.30;1.40;;;8.99;100.00;94049.66;646385;216;31628;-74
2022/04/23 08:03:15;;;;;;;6.87;2.47;;;8.20;1.40;;;9.02;100.00;94042.32;646970;216;31593;-74
2022/04/23 08:05:56;;;;;;;2.77;2.47;;;8.20;1.40;;;9.65;100.00;94037.12;647320;216;31579;-74
2022/04/23 08:08:37;;;;;;;4.53;3.30;;;8.80;1.40;;;9.64;100.00;94050.47;646408;216;31587;-73
2022/04/23 08:11:22;;;;;;;3.97;2.80;;;8.80;1.40;;;9.35;100.00;94054.25;646486;212;31577;-74
2022/04/23 08:14:02;;;;;;;5.33;3.03;;;8.60;1.40;;;9.06;100.00;94057.44;645433;215;31645;-74
2022/04/23 08:16:48;;;;;;;2.90;2.60;;;8.40;1.40;;;8.96;100.00;94063.89;647353;216;31554;-72
2022/04/23 08:19:29;;;;;;;3.10;2.57;;;8.30;1.40;;;9.13;100.00;94062.55;646463;212;31736;-74
2022/04/23 08:22:15;;;;;;;4.55;2.50;;;8.30;1.40;;;8.84;100.00;94063.56;647662;216;31596;-74
2022/04/23 08:24:56;;;;;;;2.87;2.35;;;8.20;1.40;;;8.99;100.00;94063.94;646012;212;33617;-75
2022/04/23 08:27:49;;;;;;;3.17;2.60;;;8.30;1.40;;;9.15;100.00;94063.14;646292;212;32183;-73
2022/04/23 08:30:34;;;;;;;3.95;2.67;;;8.50;1.40;;;9.70;100.00;94063.27;646010;216;31593;-74
2022/04/23 08:35:51;;;;;;;3.67;3.20;;;8.90;1.40;;;9.20;100.00;94071.81;645930;216;31620;-77
2022/04/23 08:38:35;;;;;;;6.70;3.60;;;8.50;1.40;;;9.48;100.00;94074.37;642099;216;42194;-73
2022/04/23 08:41:17;;;;;;;6.47;3.13;;;8.70;1.40;;;9.44;100.00;94075.17;647692;216;31594;-73
2022/04/23 08:44:02;;;;;;;4.47;2.57;;;8.60;1.40;;;9.33;100.00;94077.54;619365;222;31903;-74
2022/04/23 08:46:40;;;;;;;4.47;2.70;;;8.60;1.40;;;9.37;100.00;94077.11;648002;216;31606;-74
2022/04/23 08:49:22;;;;;;;2.67;2.43;;;8.70;1.40;;;9.48;100.00;94068.85;618247;222;32133;-74
2022/04/23 08:52:33;;;;;;;4.93;2.40;;;8.90;1.40;;;9.54;100.00;94074.84;618855;225;31894;-74
2022/04/23 08:55:18;;;;;;;5.50;2.47;;;8.90;1.40;;;9.81;100.00;94066.24;646874;212;31680;-74
2022/04/23 08:58:05;;;;;;;5.20;3.13;;;9.20;1.40;;;10.17;100.00;94066.30;620369;225;32090;-77
2022/04/23 09:00:49;;;;;;;4.12;2.62;;;9.40;1.40;;;9.89;100.00;94071.80;619173;225;31955;-75
2022/04/23 09:03:30;;;;;;;3.60;2.57;;;9.20;1.40;;;10.41;100.00;94070.17;619322;222;31895;-75
2022/04/23 09:06:12;;;;;;;4.30;2.97;;;9.50;1.40;;;11.15;100.00;94070.29;644779;216;31622;-73
2022/04/23 09:09:09;;;;;;;4.73;3.17;;;9.90;1.40;;;10.13;100.00;94067.30;639000;216;31772;-73
2022/04/23 09:11:55;;;;;;;4.30;2.73;;;9.40;1.40;;;10.18;100.00;94065.50;647097;212;32041;-74
2022/04/23 09:14:35;;;;;;;4.30;3.35;;;9.60;1.40;;;10.33;100.00;94068.22;646953;212;31605;-73
2022/04/23 09:25:44;;;;;;;3.20;2.73;;;10.40;1.40;;;10.48;100.00;94061.16;645978;216;31581;-73
2022/04/23 09:28:27;;;;;;;4.30;3.13;;;9.50;1.40;;;10.66;100.00;94056.19;646508;216;31577;-76
2022/04/23 09:31:09;;;;;;;5.20;3.60;;;10.00;1.40;;;11.67;100.00;94060.70;646970;216;31685;-75
2022/04/23 09:35:56;;;;;;;21.65;3.20;;;11.00;1.40;;;12.05;100.00;94055.52;646738;212;31649;-74
2022/04/23 09:38:41;;;;;;;9.13;4.97;;;10.90;1.40;;;12.57;100.00;94055.16;614580;227;32721;-75
2022/04/23 09:41:22;;;;;;;5.05;4.35;;;11.20;1.40;;;12.33;100.00;94057.90;646688;212;31621;-74
2022/04/23 09:44:07;;;;;;;5.37;3.00;;;11.10;1.40;;;12.43;100.00;94058.86;647472;216;31537;-74
2022/04/23 09:46:49;;;;;;;6.68;3.40;;;11.00;1.40;;;12.31;100.00;94056.39;646095;216;42483;-75
2022/04/23 09:49:30;;;;;;;4.18;2.83;;;11.20;1.40;;;12.22;100.00;94047.28;647229;216;42219;-74
2022/04/23 09:52:12;;;;;;;3.80;2.58;;;11.30;1.40;;;12.97;100.00;94041.89;646484;216;31574;-74
2022/04/23 09:54:54;;;;;;;3.78;3.37;;;11.80;1.40;;;11.91;100.00;94040.52;645901;212;33547;-74
2022/04/23 09:57:37;;;;;;;5.62;3.45;;;11.10;1.40;;;11.93;100.00;94041.30;646705;212;31767;-74
2022/04/23 10:00:17;;;;;;;3.63;2.60;;;11.40;1.40;;;12.56;100.00;94038.52;647250;212;31587;-75
2022/04/23 10:02:59;;;;;;;4.22;3.70;;;11.90;1.40;;;12.79;100.00;94034.59;629353;221;32211;-74
2022/04/23 10:05:46;;;;;;;3.45;2.70;;;12.20;1.40;;;14.05;100.00;94028.77;646822;216;39272;-73
2022/04/23 10:11:13;;;;;;;3.15;2.20;;;13.80;1.40;;;15.93;100.00;94027.42;646135;216;31659;-74
2022/04/23 10:13:54;;;;;;;4.20;2.70;;;15.00;1.40;;;14.11;100.00;94032.27;646457;216;31563;-75
2022/04/23 10:16:36;;;;;;;3.28;2.95;;;13.60;1.40;;;14.04;100.00;94037.41;646736;212;31548;-75
2022/04/23 10:19:18;;;;;;;3.50;2.62;;;13.90;1.40;;;15.75;100.00;94040.10;619058;222;31905;-75
2022/04/23 10:22:07;;;;;;;4.75;2.67;;;14.50;1.40;;;16.70;97.49;94039.30;645882;216;31721;-76
2022/04/23 10:24:53;;;;;;;3.17;2.57;;;14.50;1.40;;;17.39;88.34;94034.91;645127;216;33210;-76
2022/04/23 10:27:38;;;;;;;3.83;3.43;;;14.90;1.40;;;16.94;89.75;94036.64;646728;216;31551;-75
2022/04/23 10:30:19;;;;;;;3.40;2.50;;;15.30;1.40;;;17.65;88.11;94036.26;619023;224;31878;-75
2022/04/23 10:36:06;;;;;;;3.53;3.20;;;14.00;1.40;;;14.18;100.00;94039.86;645473;212;31612;-75
2022/04/23 10:38:51;;;;;;;3.77;2.50;;;13.10;1.40;;;14.02;100.00;94040.31;646395;212;31553;-74
2022/04/23 10:41:30;;;;;;;4.90;3.12;;;13.00;1.40;;;14.90;100.00;94036.22;645448;212;32959;-74
2022/04/23 10:44:12;;;;;;;4.25;2.53;;;13.90;1.40;;;16.75;98.60;94033.33;646484;216;31844;-74
2022/04/23 10:46:56;;;;;;;3.30;2.45;;;15.30;1.40;;;15.90;95.49;94037.00;645860;216;31692;-75
2022/04/23 10:49:35;;;;;;;4.15;3.55;;;15.00;1.40;;;17.54;93.41;94032.00;619520;226;31960;-75
2022/04/23 10:52:16;;;;;;;3.30;3.00;;;16.00;1.40;;;16.89;86.95;94036.00;645799;216;31685;-76
2022/04/23 10:55:01;;;;;;;4.12;2.67;;;15.40;1.40;;;16.55;88.12;94031.34;647031;216;31550;-75
2022/04/23 10:57:50;;;;;;;3.87;3.47;;;15.30;1.40;;;16.79;92.15;94034.95;646379;216;31574;-75
2022/04/23 11:00:32;;;;;;;5.12;3.60;;;15.80;1.40;;;16.79;82.77;94039.67;618805;226;31859;-75
2022/04/23 11:03:13;;;;;;;4.70;3.70;;;15.80;1.40;;;17.48;81.49;94034.55;646877;216;31613;-75
2022/04/23 11:14:47;;;;;;;5.25;3.95;;;14.40;1.40;;;17.17;88.72;94034.11;647125;216;31564;-76
2022/04/23 11:17:46;;;;;;;5.40;4.70;;;15.30;1.40;;;17.36;89.13;94031.11;618909;222;31888;-76
2022/04/23 11:20:29;;;;;;;8.27;4.70;;;15.00;1.40;;;16.76;88.56;94039.10;646782;216;31705;-74
2022/04/23 11:23:14;;;;;;;5.43;4.70;;;14.70;1.40;;;17.30;87.82;94030.23;646053;216;31566;-75
2022/04/23 11:25:56;;;;;;;7.97;5.78;;;14.70;1.40;;;15.84;92.32;94031.66;645897;216;31752;-75
2022/04/23 11:28:37;;;;;;;5.60;4.32;;;14.10;1.40;;;16.77;94.26;94027.55;646917;212;31602;-75
2022/04/23 11:31:22;;;;;;;6.55;5.43;;;14.70;1.40;;;17.22;88.20;94018.95;646844;216;31579;-76
2022/04/23 11:35:52;;;;;;;7.03;4.90;;;15.70;1.40;;;18.71;82.26;94007.36;645982;216;31606;-74
2022/04/23 11:38:34;;;;;;;7.25;4.72;;;15.90;1.40;;;18.60;80.21;94013.52;647216;212;31558;-75
2022/04/23 11:41:32;;;;;;;7.70;4.90;;;16.00;1.40;;;18.91;79.31;94007.34;646713;216;31666;-75
2022/04/23 11:44:18;;;;;;;5.85;4.62;;;16.30;1.40;;;18.52;77.77;94010.38;645263;216;31945;-75
2022/04/23 11:47:02;;;;;;;5.70;4.87;;;16.00;1.40;;;19.16;77.74;94004.84;647312;215;31632;-74
2022/04/23 11:49:44;;;;;;;6.90;4.60;;;16.10;1.40;;;18.85;78.86;93999.45;645791;216;31553;-75
2022/04/23 11:52:26;;;;;;;6.07;4.70;;;15.80;1.40;;;18.05;82.88;94000.92;647756;212;31545;-76
2022/04/23 11:55:22;;;;;;;7.65;4.70;;;15.70;1.40;;;18.98;76.06;93992.44;646522;216;31597;-75
2022/04/23 11:58:05;;;;;;;7.00;4.70;;;15.40;1.40;;;18.45;78.31;93988.25;646542;216;31588;-74
2022/04/23 12:00:48;;;;;;;5.82;4.40;;;15.50;1.40;;;18.33;78.98;93987.43;618283;226;31905;-76
2022/04/23 12:03:30;;;;;;;8.20;5.07;;;15.20;1.40;;;17.64;82.40;93982.33;647753;212;31563;-75
2022/04/23 12:06:11;;;;;;;7.45;5.55;;;15.10;1.40;;;17.25;85.19;93976.78;645582;216;31622;-74
2022/04/23 12:09:08;;;;;;;7.62;4.53;;;14.70;1.40;;;17.38;82.46;93970.21;618901;226;31942;-75
2022/04/23 12:11:50;;;;;;;5.73;4.03;;;14.90;1.40;;;17.77;80.98;93965.81;618852;226;31955;-75
2022/04/23 12:14:31;;;;;;;7.47;5.43;;;14.90;1.40;;;17.29;83.51;93956.19;647249;216;31619;-75
2022/04/23 12:17:29;;;;;;;7.37;5.05;;;14.70;1.40;;;16.80;84.68;93964.93;646444;212;31651;-74
2022/04/23 12:20:10;;;;;;;8.13;4.47;;;14.50;1.40;;;16.55;88.15;93984.56;646463;216;31825;-75
2022/04/23 12:22:59;;;;;;;7.40;5.62;;;14.60;1.40;;;17.66;83.88;93957.78;646174;216;31581;-76
2022/04/23 12:25:41;;;;;;;6.65;4.72;;;15.00;1.40;;;16.91;82.75;93943.02;646149;216;31581;-74
2022/04/23 12:41:57;;;;;;;7.07;5.05;;;14.50;1.40;;;16.36;90.48;93982.81;645154;212;31649;-74
2022/04/23 12:44:46;;;;;;;7.47;5.32;;;14.40;1.40;;;17.40;86.72;93971.77;648278;216;42167;-74
2022/04/23 12:47:30;;;;;;;9.48;5.62;;;15.20;1.40;;;16.89;84.31;93973.28;646383;216;31580;-75
2022/04/23 12:50:11;;;;;;;6.10;4.62;;;14.70;1.40;;;16.23;86.72;93978.28;646753;216;31553;-75
2022/04/23 12:52:53;;;;;;;6.45;4.85;;;14.30;1.40;;;14.75;99.46;93982.66;647158;216;31584;-74
2022/04/23 12:55:37;;;;;;;7.93;5.00;;;13.60;1.40;;;15.32;99.54;93981.23;619117;226;31870;-74